sensor_id;sensor_type;location;lat;lon;timestamp;pressure;altitude;pressure_sealevel;temperature;humidity
22440;BME280;11387;51.612;7.210;2023-02-03T00:00:33;101529.09;;;7.42;98.83
22440;BME280;11387;51.612;7.210;2023-02-03T00:03:02;101539.88;;;7.32;98.51
22440;BME280;11387;51.612;7.210;2023-02-03T00:05:33;101549.94;;;7.31;99.78
22440;BME280;11387;51.612;7.210;2023-02-03T00:08:03;101540.47;;;7.39;98.49
22440;BME280;11387;51.612;7.210;2023-02-03T00:10:33;101543.00;;;7.46;97.75
22440;BME280;11387;51.612;7.210;2023-02-03T00:13:04;101536.44;;;7.41;98.38
22440;BME280;11387;51.612;7.210;2023-02-03T00:15:33;101527.75;;;7.44;98.00
22440;BME280;11387;51.612;7.210;2023-02-03T00:18:02;101535.88;;;7.39;98.15
22440;BME280;11387;51.612;7.210;2023-02-03T00:20:31;101514.34;;;7.38;98.57
22440;BME280;11387;51.612;7.210;2023-02-03T00:23:04;101530.41;;;7.39;97.74
22440;BME280;11387;51.612;7.210;2023-02-03T00:25:32;101511.41;;;7.44;98.41
22440;BME280;11387;51.612;7.210;2023-02-03T00:28:01;101519.66;;;7.50;97.19
22440;BME280;11387;51.612;7.210;2023-02-03T00:30:33;101513.88;;;7.46;97.78
22440;BME280;11387;51.612;7.210;2023-02-03T00:33:02;101504.91;;;7.46;97.86
22440;BME280;11387;51.612;7.210;2023-02-03T00:35:30;101525.34;;;7.48;97.47
22440;BME280;11387;51.612;7.210;2023-02-03T00:37:59;101515.84;;;7.51;97.05
22440;BME280;11387;51.612;7.210;2023-02-03T00:40:27;101522.63;;;7.48;97.50
22440;BME280;11387;51.612;7.210;2023-02-03T00:42:57;101522.44;;;7.55;96.66
22440;BME280;11387;51.612;7.210;2023-02-03T00:45:25;101536.56;;;7.52;97.50
22440;BME280;11387;51.612;7.210;2023-02-03T00:47:55;101529.47;;;7.51;98.08
22440;BME280;11387;51.612;7.210;2023-02-03T00:50:24;101521.09;;;7.57;96.73
22440;BME280;11387;51.612;7.210;2023-02-03T00:52:53;101536.94;;;7.60;95.88
22440;BME280;11387;51.612;7.210;2023-02-03T00:55:22;101552.13;;;7.56;96.06
22440;BME280;11387;51.612;7.210;2023-02-03T00:57:50;101544.53;;;7.58;95.58
22440;BME280;11387;51.612;7.210;2023-02-03T01:00:20;101543.97;;;7.56;95.41
22440;BME280;11387;51.612;7.210;2023-02-03T01:02:48;101560.94;;;7.63;94.95
22440;BME280;11387;51.612;7.210;2023-02-03T01:05:18;101557.66;;;7.66;94.43
22440;BME280;11387;51.612;7.210;2023-02-03T01:07:46;101570.72;;;7.64;94.30
22440;BME280;11387;51.612;7.210;2023-02-03T01:10:15;101583.38;;;7.75;93.70
22440;BME280;11387;51.612;7.210;2023-02-03T01:12:44;101593.63;;;7.68;93.61
22440;BME280;11387;51.612;7.210;2023-02-03T01:15:13;101583.31;;;7.70;93.57
22440;BME280;11387;51.612;7.210;2023-02-03T01:17:41;101585.59;;;7.78;92.57
22440;BME280;11387;51.612;7.210;2023-02-03T01:20:10;101580.13;;;7.78;92.89
22440;BME280;11387;51.612;7.210;2023-02-03T01:22:41;101571.41;;;7.76;92.62
22440;BME280;11387;51.612;7.210;2023-02-03T01:25:10;101569.81;;;7.81;92.62
22440;BME280;11387;51.612;7.210;2023-02-03T01:27:38;101573.22;;;7.93;92.05
22440;BME280;11387;51.612;7.210;2023-02-03T01:30:08;101578.34;;;7.89;92.02
22440;BME280;11387;51.612;7.210;2023-02-03T01:32:37;101576.72;;;7.88;91.83
22440;BME280;11387;51.612;7.210;2023-02-03T01:35:06;101581.34;;;7.88;92.12
22440;BME280;11387;51.612;7.210;2023-02-03T01:37:35;101593.06;;;7.88;91.51
22440;BME280;11387;51.612;7.210;2023-02-03T01:40:07;101581.03;;;7.84;91.95
22440;BME280;11387;51.612;7.210;2023-02-03T01:42:36;101564.69;;;7.84;91.88
22440;BME280;11387;51.612;7.210;2023-02-03T01:45:05;101558.16;;;7.85;91.86
22440;BME280;11387;51.612;7.210;2023-02-03T01:47:39;101573.63;;;7.80;91.96
22440;BME280;11387;51.612;7.210;2023-02-03T01:50:13;101566.63;;;7.89;91.93
22440;BME280;11387;51.612;7.210;2023-02-03T01:52:46;101578.50;;;7.77;91.99
22440;BME280;11387;51.612;7.210;2023-02-03T01:55:20;101563.84;;;7.84;91.80
22440;BME280;11387;51.612;7.210;2023-02-03T01:57:51;101558.41;;;7.84;91.85
22440;BME280;11387;51.612;7.210;2023-02-03T02:00:22;101570.13;;;7.84;91.90
22440;BME280;11387;51.612;7.210;2023-02-03T02:02:51;101580.13;;;7.78;91.81
22440;BME280;11387;51.612;7.210;2023-02-03T02:05:24;101553.22;;;7.82;91.63
22440;BME280;11387;51.612;7.210;2023-02-03T02:07:56;101545.34;;;7.86;91.66
22440;BME280;11387;51.612;7.210;2023-02-03T02:10:28;101549.88;;;7.75;92.14
22440;BME280;11387;51.612;7.210;2023-02-03T02:12:58;101551.19;;;7.72;91.84
22440;BME280;11387;51.612;7.210;2023-02-03T02:15:32;101543.69;;;7.85;91.27
22440;BME280;11387;51.612;7.210;2023-02-03T02:18:13;101529.50;;;7.83;91.19
22440;BME280;11387;51.612;7.210;2023-02-03T02:21:10;101524.63;;;7.85;90.77
22440;BME280;11387;51.612;7.210;2023-02-03T02:26:49;101503.34;;;7.82;91.06
22440;BME280;11387;51.612;7.210;2023-02-03T02:29:34;101516.47;;;7.85;91.03
22440;BME280;11387;51.612;7.210;2023-02-03T02:32:18;101500.13;;;7.85;90.86
22440;BME280;11387;51.612;7.210;2023-02-03T02:34:56;101495.28;;;7.92;90.76
22440;BME280;11387;51.612;7.210;2023-02-03T02:37:39;101499.28;;;7.84;90.95
22440;BME280;11387;51.612;7.210;2023-02-03T02:40:20;101498.97;;;7.81;90.87
22440;BME280;11387;51.612;7.210;2023-02-03T02:42:59;101482.63;;;7.81;91.10
22440;BME280;11387;51.612;7.210;2023-02-03T02:45:33;101479.34;;;7.78;91.18
22440;BME280;11387;51.612;7.210;2023-02-03T02:48:11;101476.38;;;7.80;91.22
22440;BME280;11387;51.612;7.210;2023-02-03T02:50:45;101478.84;;;7.82;90.80
22440;BME280;11387;51.612;7.210;2023-02-03T02:53:16;101457.00;;;7.76;91.02
22440;BME280;11387;51.612;7.210;2023-02-03T02:55:47;101462.13;;;7.73;90.58
22440;BME280;11387;51.612;7.210;2023-02-03T02:58:18;101488.28;;;7.74;91.13
22440;BME280;11387;51.612;7.210;2023-02-03T03:00:47;101515.22;;;7.70;90.96
22440;BME280;11387;51.612;7.210;2023-02-03T03:03:22;101522.94;;;7.78;90.72
22440;BME280;11387;51.612;7.210;2023-02-03T03:05:54;101503.59;;;7.80;90.57
22440;BME280;11387;51.612;7.210;2023-02-03T03:08:29;101510.41;;;7.77;90.50
22440;BME280;11387;51.612;7.210;2023-02-03T03:11:00;101519.19;;;7.85;90.45
22440;BME280;11387;51.612;7.210;2023-02-03T03:13:34;101530.38;;;7.88;90.37
22440;BME280;11387;51.612;7.210;2023-02-03T03:16:06;101523.56;;;7.86;90.36
22440;BME280;11387;51.612;7.210;2023-02-03T03:18:41;101518.94;;;7.86;90.05
22440;BME280;11387;51.612;7.210;2023-02-03T03:21:13;101510.19;;;7.84;90.27
22440;BME280;11387;51.612;7.210;2023-02-03T03:23:45;101506.91;;;7.82;90.15
22440;BME280;11387;51.612;7.210;2023-02-03T03:26:20;101511.00;;;7.85;89.54
22440;BME280;11387;51.612;7.210;2023-02-03T03:28:59;101516.97;;;7.82;90.10
22440;BME280;11387;51.612;7.210;2023-02-03T03:31:31;101508.53;;;7.83;90.22
22440;BME280;11387;51.612;7.210;2023-02-03T03:34:01;101505.56;;;7.85;89.92
22440;BME280;11387;51.612;7.210;2023-02-03T03:36:34;101495.75;;;7.84;89.75
22440;BME280;11387;51.612;7.210;2023-02-03T03:39:12;101501.44;;;7.82;89.52
22440;BME280;11387;51.612;7.210;2023-02-03T03:41:51;101495.75;;;7.84;89.31
22440;BME280;11387;51.612;7.210;2023-02-03T03:44:28;101501.25;;;7.89;89.18
22440;BME280;11387;51.612;7.210;2023-02-03T03:47:03;101503.34;;;7.82;89.36
22440;BME280;11387;51.612;7.210;2023-02-03T03:49:37;101506.63;;;7.84;89.09
22440;BME280;11387;51.612;7.210;2023-02-03T03:52:09;101512.66;;;7.86;88.81
22440;BME280;11387;51.612;7.210;2023-02-03T03:54:43;101513.16;;;7.83;88.83
22440;BME280;11387;51.612;7.210;2023-02-03T03:57:16;101519.75;;;7.87;88.14
22440;BME280;11387;51.612;7.210;2023-02-03T03:59:48;101508.03;;;7.86;88.48
22440;BME280;11387;51.612;7.210;2023-02-03T04:02:18;101505.06;;;7.88;88.48
22440;BME280;11387;51.612;7.210;2023-02-03T04:04:49;101495.75;;;7.84;88.47
22440;BME280;11387;51.612;7.210;2023-02-03T04:07:19;101488.41;;;7.84;88.31
22440;BME280;11387;51.612;7.210;2023-02-03T04:09:48;101495.19;;;7.82;88.57
22440;BME280;11387;51.612;7.210;2023-02-03T04:12:22;101502.06;;;7.89;88.03
22440;BME280;11387;51.612;7.210;2023-02-03T04:14:50;101503.09;;;7.83;88.15
22440;BME280;11387;51.612;7.210;2023-02-03T04:17:19;101493.53;;;7.81;88.00
22440;BME280;11387;51.612;7.210;2023-02-03T04:19:49;101503.16;;;7.88;87.83
22440;BME280;11387;51.612;7.210;2023-02-03T04:22:17;101498.47;;;7.84;87.67
22440;BME280;11387;51.612;7.210;2023-02-03T04:24:46;101503.03;;;7.78;88.22
22440;BME280;11387;51.612;7.210;2023-02-03T04:27:15;101495.69;;;7.78;88.14
22440;BME280;11387;51.612;7.210;2023-02-03T04:29:43;101499.59;;;7.88;87.64
22440;BME280;11387;51.612;7.210;2023-02-03T04:32:13;101499.09;;;7.91;87.36
22440;BME280;11387;51.612;7.210;2023-02-03T04:34:42;101505.56;;;7.85;87.76
22440;BME280;11387;51.612;7.210;2023-02-03T04:37:12;101508.59;;;7.88;87.63
22440;BME280;11387;51.612;7.210;2023-02-03T04:39:40;101496.91;;;7.93;87.40
22440;BME280;11387;51.612;7.210;2023-02-03T04:42:09;101487.63;;;7.89;87.85
22440;BME280;11387;51.612;7.210;2023-02-03T04:44:38;101485.47;;;7.91;87.59
22440;BME280;11387;51.612;7.210;2023-02-03T04:47:06;101481.59;;;7.87;87.54
22440;BME280;11387;51.612;7.210;2023-02-03T04:49:34;101474.00;;;7.89;87.68
22440;BME280;11387;51.612;7.210;2023-02-03T04:52:04;101473.44;;;7.87;87.58
22440;BME280;11387;51.612;7.210;2023-02-03T04:54:35;101452.16;;;7.84;87.91
22440;BME280;11387;51.612;7.210;2023-02-03T04:57:04;101472.34;;;7.88;87.62
22440;BME280;11387;51.612;7.210;2023-02-03T04:59:32;101466.91;;;7.88;87.83
22440;BME280;11387;51.612;7.210;2023-02-03T05:02:01;101462.78;;;7.85;87.55
22440;BME280;11387;51.612;7.210;2023-02-03T05:04:30;101459.88;;;7.97;87.59
22440;BME280;11387;51.612;7.210;2023-02-03T05:06:59;101478.41;;;7.95;86.92
22440;BME280;11387;51.612;7.210;2023-02-03T05:09:28;101459.56;;;7.88;87.50
22440;BME280;11387;51.612;7.210;2023-02-03T05:11:58;101460.91;;;7.86;87.65
22440;BME280;11387;51.612;7.210;2023-02-03T05:14:26;101441.88;;;7.91;87.54
22440;BME280;11387;51.612;7.210;2023-02-03T05:16:55;101458.72;;;7.88;87.68
22440;BME280;11387;51.612;7.210;2023-02-03T05:19:23;101460.41;;;7.94;87.16
22440;BME280;11387;51.612;7.210;2023-02-03T05:21:52;101461.75;;;7.91;87.40
22440;BME280;11387;51.612;7.210;2023-02-03T05:24:20;101461.75;;;7.91;87.31
22440;BME280;11387;51.612;7.210;2023-02-03T05:26:49;101472.34;;;7.88;87.41
22440;BME280;11387;51.612;7.210;2023-02-03T05:29:19;101458.16;;;7.86;87.24
22440;BME280;11387;51.612;7.210;2023-02-03T05:31:48;101433.91;;;7.84;87.56
22440;BME280;11387;51.612;7.210;2023-02-03T05:34:17;101429.28;;;7.85;87.32
22440;BME280;11387;51.612;7.210;2023-02-03T05:36:46;101431.53;;;7.93;87.34
22440;BME280;11387;51.612;7.210;2023-02-03T05:39:15;101445.13;;;7.88;86.77
22440;BME280;11387;51.612;7.210;2023-02-03T05:41:43;101446.44;;;7.85;87.30
22440;BME280;11387;51.612;7.210;2023-02-03T05:44:26;101445.69;;;7.90;86.92
22440;BME280;11387;51.612;7.210;2023-02-03T05:46:57;101445.13;;;7.88;87.20
22440;BME280;11387;51.612;7.210;2023-02-03T05:49:26;101448.16;;;7.96;86.49
22440;BME280;11387;51.612;7.210;2023-02-03T05:51:54;101447.56;;;7.89;86.52
22440;BME280;11387;51.612;7.210;2023-02-03T05:54:23;101461.75;;;7.91;86.67
22440;BME280;11387;51.612;7.210;2023-02-03T05:56:52;101455.56;;;8.01;86.21
22440;BME280;11387;51.612;7.210;2023-02-03T05:59:20;101455.50;;;7.96;86.41
22440;BME280;11387;51.612;7.210;2023-02-03T06:01:50;101453.91;;;7.95;86.90
22440;BME280;11387;51.612;7.210;2023-02-03T06:04:19;101455.78;;;7.94;86.30
22440;BME280;11387;51.612;7.210;2023-02-03T06:06:47;101462.84;;;7.95;86.36
22440;BME280;11387;51.612;7.210;2023-02-03T06:09:16;101467.50;;;7.95;86.13
22440;BME280;11387;51.612;7.210;2023-02-03T06:11:44;101458.22;;;7.96;86.08
22440;BME280;11387;51.612;7.210;2023-02-03T06:14:13;101446.03;;;8.03;86.10
22440;BME280;11387;51.612;7.210;2023-02-03T06:16:41;101446.78;;;7.94;86.33
22440;BME280;11387;51.612;7.210;2023-02-03T06:19:11;101436.44;;;7.96;86.21
22440;BME280;11387;51.612;7.210;2023-02-03T06:21:42;101441.88;;;7.96;85.97
22440;BME280;11387;51.612;7.210;2023-02-03T06:24:11;101447.63;;;7.99;85.96
22440;BME280;11387;51.612;7.210;2023-02-03T06:26:39;101458.78;;;7.93;86.02
22440;BME280;11387;51.612;7.210;2023-02-03T06:29:08;101456.13;;;8.03;86.19
22440;BME280;11387;51.612;7.210;2023-02-03T06:31:36;101459.59;;;7.93;86.18
22440;BME280;11387;51.612;7.210;2023-02-03T06:34:05;101458.22;;;7.96;85.81
22440;BME280;11387;51.612;7.210;2023-02-03T06:36:35;101450.34;;;7.94;86.00
22440;BME280;11387;51.612;7.210;2023-02-03T06:39:04;101455.22;;;7.92;86.52
22440;BME280;11387;51.612;7.210;2023-02-03T06:41:32;101455.50;;;7.96;86.48
22440;BME280;11387;51.612;7.210;2023-02-03T06:44:01;101459.34;;;8.00;86.31
22440;BME280;11387;51.612;7.210;2023-02-03T06:46:30;101460.44;;;7.99;85.99
22440;BME280;11387;51.612;7.210;2023-02-03T06:49:00;101471.34;;;7.99;86.58
22440;BME280;11387;51.612;7.210;2023-02-03T06:51:29;101465.09;;;8.03;86.41
22440;BME280;11387;51.612;7.210;2023-02-03T06:53:59;101462.59;;;7.92;87.14
22440;BME280;11387;51.612;7.210;2023-02-03T06:56:29;101472.72;;;8.01;87.17
22440;BME280;11387;51.612;7.210;2023-02-03T06:58:59;101478.16;;;8.01;87.33
22440;BME280;11387;51.612;7.210;2023-02-03T07:01:27;101473.03;;;8.05;86.94
22440;BME280;11387;51.612;7.210;2023-02-03T07:03:57;101466.75;;;8.04;86.57
22440;BME280;11387;51.612;7.210;2023-02-03T07:06:26;101482.84;;;8.06;86.54
22440;BME280;11387;51.612;7.210;2023-02-03T07:09:01;101486.38;;;8.06;86.30
22440;BME280;11387;51.612;7.210;2023-02-03T07:11:31;101487.94;;;7.97;87.31
22440;BME280;11387;51.612;7.210;2023-02-03T07:14:00;101480.56;;;7.93;87.14
22440;BME280;11387;51.612;7.210;2023-02-03T07:16:29;101489.88;;;8.02;86.91
22440;BME280;11387;51.612;7.210;2023-02-03T07:19:00;101467.28;;;8.01;86.78
22440;BME280;11387;51.612;7.210;2023-02-03T07:21:28;101474.88;;;7.99;86.71
22440;BME280;11387;51.612;7.210;2023-02-03T07:23:57;101471.38;;;8.04;86.58
22440;BME280;11387;51.612;7.210;2023-02-03T07:26:28;101472.00;;;8.11;86.51
22440;BME280;11387;51.612;7.210;2023-02-03T07:28:57;101472.50;;;8.08;86.36
22440;BME280;11387;51.612;7.210;2023-02-03T07:31:27;101464.88;;;8.10;85.85
22440;BME280;11387;51.612;7.210;2023-02-03T07:33:56;101467.88;;;8.08;85.89
22440;BME280;11387;51.612;7.210;2023-02-03T07:36:24;101471.41;;;8.09;85.82
22440;BME280;11387;51.612;7.210;2023-02-03T07:38:54;101476.91;;;8.14;85.70
22440;BME280;11387;51.612;7.210;2023-02-03T07:41:23;101477.41;;;8.06;85.91
22440;BME280;11387;51.612;7.210;2023-02-03T07:43:53;101475.28;;;8.13;85.77
22440;BME280;11387;51.612;7.210;2023-02-03T07:46:21;101464.88;;;8.10;85.57
22440;BME280;11387;51.612;7.210;2023-02-03T07:48:50;101481.31;;;8.20;85.30
22440;BME280;11387;51.612;7.210;2023-02-03T07:51:18;101480.19;;;8.16;85.33
22440;BME280;11387;51.612;7.210;2023-02-03T07:53:47;101479.09;;;8.12;85.29
22440;BME280;11387;51.612;7.210;2023-02-03T07:56:16;101482.88;;;8.11;85.24
22440;BME280;11387;51.612;7.210;2023-02-03T07:58:45;101476.41;;;8.17;85.07
22440;BME280;11387;51.612;7.210;2023-02-03T08:01:15;101473.97;;;8.26;85.42
22440;BME280;11387;51.612;7.210;2023-02-03T08:03:44;101467.44;;;8.22;85.19
22440;BME280;11387;51.612;7.210;2023-02-03T08:06:12;101483.50;;;8.18;85.43
22440;BME280;11387;51.612;7.210;2023-02-03T08:08:41;101481.84;;;8.17;85.52
22440;BME280;11387;51.612;7.210;2023-02-03T08:11:10;101482.44;;;8.24;85.32
22440;BME280;11387;51.612;7.210;2023-02-03T08:13:38;101488.72;;;8.25;85.22
22440;BME280;11387;51.612;7.210;2023-02-03T08:16:07;101486.25;;;8.23;85.33
22440;BME280;11387;51.612;7.210;2023-02-03T08:18:37;101485.44;;;8.23;85.30
22440;BME280;11387;51.612;7.210;2023-02-03T08:21:06;101496.09;;;8.24;85.10
22440;BME280;11387;51.612;7.210;2023-02-03T08:23:34;101503.72;;;8.27;85.05
22440;BME280;11387;51.612;7.210;2023-02-03T08:26:03;101488.47;;;8.31;84.98
22440;BME280;11387;51.612;7.210;2023-02-03T08:28:32;101489.94;;;8.39;84.90
22440;BME280;11387;51.612;7.210;2023-02-03T08:31:00;101485.28;;;8.39;84.72
22440;BME280;11387;51.612;7.210;2023-02-03T08:33:30;101480.38;;;8.36;84.95
22440;BME280;11387;51.612;7.210;2023-02-03T08:36:03;101474.09;;;8.36;84.70
22440;BME280;11387;51.612;7.210;2023-02-03T08:38:32;101479.59;;;8.41;84.72
22440;BME280;11387;51.612;7.210;2023-02-03T08:41:00;101468.69;;;8.41;84.76
22440;BME280;11387;51.612;7.210;2023-02-03T08:43:29;101484.25;;;8.46;84.55
22440;BME280;11387;51.612;7.210;2023-02-03T08:46:01;101486.50;;;8.54;84.00
22440;BME280;11387;51.612;7.210;2023-02-03T08:48:30;101478.78;;;8.46;84.59
22440;BME280;11387;51.612;7.210;2023-02-03T08:51:00;101482.94;;;8.58;84.23
22440;BME280;11387;51.612;7.210;2023-02-03T08:53:29;101493.59;;;8.55;84.11
22440;BME280;11387;51.612;7.210;2023-02-03T08:55:58;101489.47;;;8.52;84.41
22440;BME280;11387;51.612;7.210;2023-02-03T08:58:26;101500.13;;;8.59;83.99
22440;BME280;11387;51.612;7.210;2023-02-03T09:00:55;101494.69;;;8.59;84.42
22440;BME280;11387;51.612;7.210;2023-02-03T09:03:34;101494.69;;;8.59;84.13
22440;BME280;11387;51.612;7.210;2023-02-03T09:06:05;101510.78;;;8.60;84.19
22440;BME280;11387;51.612;7.210;2023-02-03T09:08:35;101496.34;;;8.65;84.18
22440;BME280;11387;51.612;7.210;2023-02-03T09:11:07;101492.56;;;8.71;83.79
22440;BME280;11387;51.612;7.210;2023-02-03T09:13:37;101501.25;;;8.63;84.27
22440;BME280;11387;51.612;7.210;2023-02-03T09:16:06;101507.81;;;8.67;84.29
22440;BME280;11387;51.612;7.210;2023-02-03T09:18:35;101508.88;;;8.61;84.33
22440;BME280;11387;51.612;7.210;2023-02-03T09:21:06;101514.09;;;8.67;84.10
22440;BME280;11387;51.612;7.210;2023-02-03T09:23:36;101507.53;;;8.63;84.27
22440;BME280;11387;51.612;7.210;2023-02-03T09:26:06;101513.81;;;8.64;84.28
22440;BME280;11387;51.612;7.210;2023-02-03T09:28:35;101520.94;;;8.70;84.41
22440;BME280;11387;51.612;7.210;2023-02-03T09:31:05;101518.22;;;8.70;84.22
22440;BME280;11387;51.612;7.210;2023-02-03T09:33:34;101487.59;;;8.63;84.42
22440;BME280;11387;51.612;7.210;2023-02-03T09:36:06;101521.47;;;8.67;84.74
22440;BME280;11387;51.612;7.210;2023-02-03T09:38:34;101519.25;;;8.64;84.64
22440;BME280;11387;51.612;7.210;2023-02-03T09:41:13;101511.94;;;8.69;84.73
22440;BME280;11387;51.612;7.210;2023-02-03T09:43:50;101503.69;;;8.59;85.47
22440;BME280;11387;51.612;7.210;2023-02-03T09:46:22;101523.38;;;8.66;85.05
22440;BME280;11387;51.612;7.210;2023-02-03T09:48:55;101510.00;;;8.65;85.24
22440;BME280;11387;51.612;7.210;2023-02-03T09:51:28;101498.63;;;8.78;84.76
22440;BME280;11387;51.612;7.210;2023-02-03T09:54:03;101504.09;;;8.88;84.35
22440;BME280;11387;51.612;7.210;2023-02-03T09:56:35;101504.63;;;8.80;84.51
22440;BME280;11387;51.612;7.210;2023-02-03T09:59:04;101506.84;;;8.83;84.47
22440;BME280;11387;51.612;7.210;2023-02-03T10:01:39;101511.22;;;8.89;84.30
22440;BME280;11387;51.612;7.210;2023-02-03T10:04:22;101534.06;;;8.73;84.95
22440;BME280;11387;51.612;7.210;2023-02-03T10:07:02;101538.75;;;8.83;84.83
22440;BME280;11387;51.612;7.210;2023-02-03T10:09:42;101522.09;;;8.79;84.89
22440;BME280;11387;51.612;7.210;2023-02-03T10:15:39;101525.94;;;8.88;84.39
22440;BME280;11387;51.612;7.210;2023-02-03T10:18:12;101517.75;;;8.83;84.88
22440;BME280;11387;51.612;7.210;2023-02-03T10:20:46;101528.13;;;8.86;84.83
22440;BME280;11387;51.612;7.210;2023-02-03T10:23:19;101517.78;;;8.93;84.58
22440;BME280;11387;51.612;7.210;2023-02-03T10:25:51;101535.16;;;8.77;85.03
22440;BME280;11387;51.612;7.210;2023-02-03T10:28:31;101534.63;;;8.75;85.41
22440;BME280;11387;51.612;7.210;2023-02-03T10:31:12;101539.00;;;8.76;85.51
22440;BME280;11387;51.612;7.210;2023-02-03T10:33:43;101534.13;;;8.83;85.33
22440;BME280;11387;51.612;7.210;2023-02-03T10:36:17;101541.75;;;8.81;85.56
22440;BME280;11387;51.612;7.210;2023-02-03T10:38:56;101540.63;;;8.77;85.60
22440;BME280;11387;51.612;7.210;2023-02-03T10:41:29;101537.38;;;8.80;85.56
22440;BME280;11387;51.612;7.210;2023-02-03T10:44:01;101537.94;;;8.87;85.53
22440;BME280;11387;51.612;7.210;2023-02-03T10:46:34;101537.13;;;8.87;85.21
22440;BME280;11387;51.612;7.210;2023-02-03T10:49:03;101546.69;;;8.89;85.43
22440;BME280;11387;51.612;7.210;2023-02-03T10:51:36;101522.63;;;8.76;85.90
22440;BME280;11387;51.612;7.210;2023-02-03T10:54:25;101528.66;;;8.83;85.73
22440;BME280;11387;51.612;7.210;2023-02-03T10:57:02;101525.94;;;8.88;85.54
22440;BME280;11387;51.612;7.210;2023-02-03T10:59:35;101522.38;;;8.88;85.66
22440;BME280;11387;51.612;7.210;2023-02-03T11:02:09;101531.44;;;8.93;85.65
22440;BME280;11387;51.612;7.210;2023-02-03T11:04:38;101533.59;;;8.86;85.68
22440;BME280;11387;51.612;7.210;2023-02-03T11:07:22;101537.41;;;8.85;85.94
22440;BME280;11387;51.612;7.210;2023-02-03T11:09:53;101539.06;;;8.91;85.68
22440;BME280;11387;51.612;7.210;2023-02-03T11:12:21;101539.91;;;8.97;85.61
22440;BME280;11387;51.612;7.210;2023-02-03T11:14:52;101529.50;;;8.84;86.38
22440;BME280;11387;51.612;7.210;2023-02-03T11:17:26;101543.69;;;8.86;86.25
22440;BME280;11387;51.612;7.210;2023-02-03T11:20:03;101542.38;;;8.98;85.66
22440;BME280;11387;51.612;7.210;2023-02-03T11:22:41;101535.81;;;8.99;85.49
22440;BME280;11387;51.612;7.210;2023-02-03T11:25:26;101513.94;;;8.84;86.29
22440;BME280;11387;51.612;7.210;2023-02-03T11:28:02;101551.59;;;8.87;87.05
22440;BME280;11387;51.612;7.210;2023-02-03T11:30:33;101546.69;;;8.84;87.12
22440;BME280;11387;51.612;7.210;2023-02-03T11:33:02;101554.84;;;8.79;87.30
22440;BME280;11387;51.612;7.210;2023-02-03T11:35:31;101558.94;;;8.82;87.29
22440;BME280;11387;51.612;7.210;2023-02-03T11:38:00;101561.38;;;8.78;87.82
22440;BME280;11387;51.612;7.210;2023-02-03T11:40:31;101560.25;;;8.74;88.13
22440;BME280;11387;51.612;7.210;2023-02-03T11:43:13;101544.97;;;8.73;88.46
22440;BME280;11387;51.612;7.210;2023-02-03T11:45:47;101543.34;;;8.77;87.82
22440;BME280;11387;51.612;7.210;2023-02-03T11:48:25;101552.66;;;8.81;87.70
22440;BME280;11387;51.612;7.210;2023-02-03T11:51:04;101553.22;;;8.88;87.72
22440;BME280;11387;51.612;7.210;2023-02-03T11:54:12;101552.41;;;8.88;87.38
22440;BME280;11387;51.612;7.210;2023-02-03T11:57:06;101548.31;;;8.90;87.06
22440;BME280;11387;51.612;7.210;2023-02-03T11:59:48;101551.94;;;9.01;86.86
22440;BME280;11387;51.612;7.210;2023-02-03T12:02:38;101559.56;;;8.99;86.70
22440;BME280;11387;51.612;7.210;2023-02-03T12:05:25;101563.09;;;8.94;86.90
22440;BME280;11387;51.612;7.210;2023-02-03T12:08:07;101551.94;;;9.01;86.50
22440;BME280;11387;51.612;7.210;2023-02-03T12:10:44;101552.22;;;9.04;86.51
22440;BME280;11387;51.612;7.210;2023-02-03T12:13:30;101559.28;;;8.95;86.60
22440;BME280;11387;51.612;7.210;2023-02-03T12:16:19;101575.41;;;9.02;86.30
22440;BME280;11387;51.612;7.210;2023-02-03T12:18:57;101576.81;;;9.04;86.18
22440;BME280;11387;51.612;7.210;2023-02-03T12:21:42;101583.69;;;9.17;86.00
22440;BME280;11387;51.612;7.210;2023-02-03T12:24:22;101574.38;;;9.08;86.11
22440;BME280;11387;51.612;7.210;2023-02-03T12:27:09;101568.41;;;9.16;85.54
22440;BME280;11387;51.612;7.210;2023-02-03T12:29:43;101573.63;;;9.28;85.48
22440;BME280;11387;51.612;7.210;2023-02-03T12:32:18;101565.38;;;9.13;85.82
22440;BME280;11387;51.612;7.210;2023-02-03T12:34:54;101553.97;;;9.26;85.08
22440;BME280;11387;51.612;7.210;2023-02-03T12:37:26;101553.72;;;9.32;84.84
22440;BME280;11387;51.612;7.210;2023-02-03T12:39:58;101539.81;;;9.49;84.91
22440;BME280;11387;51.612;7.210;2023-02-03T12:42:31;101565.00;;;9.56;83.82
22440;BME280;11387;51.612;7.210;2023-02-03T12:45:11;101572.63;;;9.54;83.77
22440;BME280;11387;51.612;7.210;2023-02-03T12:47:43;101574.75;;;9.37;84.17
22440;BME280;11387;51.612;7.210;2023-02-03T12:50:17;101565.53;;;9.53;83.97
22440;BME280;11387;51.612;7.210;2023-02-03T12:52:51;101558.97;;;9.44;83.89
22440;BME280;11387;51.612;7.210;2023-02-03T12:55:31;101566.56;;;9.37;83.80
22440;BME280;11387;51.612;7.210;2023-02-03T12:58:04;101563.88;;;9.47;83.77
22440;BME280;11387;51.612;7.210;2023-02-03T13:00:39;101564.94;;;9.41;83.87
22440;BME280;11387;51.612;7.210;2023-02-03T13:03:15;101570.97;;;9.43;84.07
22440;BME280;11387;51.612;7.210;2023-02-03T13:05:49;101569.28;;;9.32;84.61
22440;BME280;11387;51.612;7.210;2023-02-03T13:08:27;101552.84;;;9.22;85.46
22440;BME280;11387;51.612;7.210;2023-02-03T13:11:07;101567.31;;;9.17;85.88
22440;BME280;11387;51.612;7.210;2023-02-03T13:13:44;101585.59;;;9.22;86.49
22440;BME280;11387;51.612;7.210;2023-02-03T13:16:18;101612.09;;;9.21;87.79
22440;BME280;11387;51.612;7.210;2023-02-03T13:18:53;101579.16;;;8.86;89.62
22440;BME280;11387;51.612;7.210;2023-02-03T13:21:24;101587.41;;;8.54;89.87
22440;BME280;11387;51.612;7.210;2023-02-03T13:23:52;101578.44;;;8.31;91.31
22440;BME280;11387;51.612;7.210;2023-02-03T13:26:56;101591.19;;;8.21;91.49
22440;BME280;11387;51.612;7.210;2023-02-03T13:29:41;101580.34;;;7.99;92.75
22440;BME280;11387;51.612;7.210;2023-02-03T13:32:28;101585.78;;;7.99;92.99